Time;durP1;ratioP1;P1;durP2;ratioP2;P2;SDS_P1;SDS_P2;PMS_P1;PMS_P2;Temp;Humidity;BMP_temperature;BMP_pressure;BME280_temperature;BME280_humidity;BME280_pressure;Samples;Min_cycle;Max_cycle;Signal;HPM_P1;HPM_P2
2020/12/31 00:01:58;;;;;;;5.73;4.00;;;;;;;2.05;93.04;95907.13;5102087;27;20667;-68
2020/12/31 00:04:23;;;;;;;3.90;3.37;;;;;;;1.89;93.37;95901.53;5091966;28;20295;-68
2020/12/31 00:06:49;;;;;;;4.30;3.53;;;;;;;1.98;93.92;95902.94;5091278;28;20221;-68
2020/12/31 00:09:16;;;;;;;3.87;3.40;;;;;;;2.03;92.62;95906.53;5092375;28;20220;-68
2020/12/31 00:11:42;;;;;;;3.97;3.67;;;;;;;2.08;92.82;95905.94;5090367;28;20631;-68
2020/12/31 00:14:07;;;;;;;3.60;3.30;;;;;;;2.00;93.09;95904.34;5091070;28;20317;-67
2020/12/31 00:16:35;;;;;;;4.13;3.50;;;;;;;1.99;93.22;95905.34;5090719;28;20686;-67
2020/12/31 00:19:03;;;;;;;4.40;3.50;;;;;;;1.99;93.03;95905.34;5091892;28;20538;-68
2020/12/31 00:21:28;;;;;;;3.50;3.20;;;;;;;2.05;92.32;95899.38;5091098;28;20610;-67
2020/12/31 00:23:54;;;;;;;4.43;3.53;;;;;;;2.02;93.15;95897.19;5091406;28;20211;-68
2020/12/31 00:26:20;;;;;;;3.73;3.43;;;;;;;1.98;93.15;95892.59;5091904;28;20176;-68
2020/12/31 00:28:45;;;;;;;3.33;3.03;;;;;;;2.00;92.65;95895.78;5090834;28;20175;-68
2020/12/31 00:31:10;;;;;;;3.83;3.40;;;;;;;2.03;93.13;95890.22;5091506;28;20192;-68
2020/12/31 00:33:36;;;;;;;3.60;3.30;;;;;;;2.17;91.71;95886.69;5089200;28;20207;-68
2020/12/31 00:36:02;;;;;;;3.23;3.00;;;;;;;2.10;91.32;95888.47;5091454;28;20586;-68
2020/12/31 00:38:32;;;;;;;3.00;2.73;;;;;;;2.00;89.49;95883.66;5091561;28;20204;-67
2020/12/31 00:40:59;;;;;;;3.27;2.77;;;;;;;1.97;89.99;95878.09;5091642;28;20211;-68
2020/12/31 00:43:25;;;;;;;3.37;3.07;;;;;;;1.97;89.54;95881.47;5091219;28;20586;-67
2020/12/31 00:45:51;;;;;;;3.23;2.93;;;;;;;1.93;90.44;95874.31;5090491;28;20168;-68
2020/12/31 00:48:16;;;;;;;3.30;3.00;;;;;;;1.87;90.47;95873.28;5091223;28;20231;-68
2020/12/31 00:50:42;;;;;;;3.80;3.00;;;;;;;1.85;90.36;95875.25;5090482;28;20294;-68
2020/12/31 00:53:07;;;;;;;2.93;2.73;;;;;;;1.79;91.39;95877.81;5090757;28;20207;-68
2020/12/31 00:55:33;;;;;;;2.80;2.60;;;;;;;1.82;90.52;95880.84;5090583;28;20298;-67
2020/12/31 00:57:58;;;;;;;3.47;2.80;;;;;;;1.80;90.47;95877.63;5090941;28;20704;-68
2020/12/31 01:00:24;;;;;;;2.63;2.43;;;;;;;1.79;90.73;95876.03;5090003;28;20196;-68
2020/12/31 01:02:49;;;;;;;3.53;2.57;;;;;;;1.81;90.36;95875.84;5137866;27;20242;-68
2020/12/31 01:05:16;;;;;;;2.93;2.73;;;;;;;1.76;89.78;95876.44;5138260;27;20246;-68
2020/12/31 01:07:41;;;;;;;2.93;2.73;;;;;;;1.78;89.77;95871.09;5142336;27;20548;-68
2020/12/31 01:10:08;;;;;;;3.07;2.80;;;;;;;1.80;89.22;95880.22;5145733;27;20184;-68
2020/12/31 01:12:34;;;;;;;3.50;3.20;;;;;;;1.74;89.38;95877.59;5134608;27;20203;-67
2020/12/31 01:15:00;;;;;;;4.53;3.67;;;;;;;1.68;89.53;95876.59;5147729;27;20641;-68
2020/12/31 01:17:26;;;;;;;3.93;2.90;;;;;;;1.60;91.14;95877.59;5139985;27;20656;-68
2020/12/31 01:19:52;;;;;;;3.93;3.10;;;;;;;1.52;91.02;95887.25;5140561;27;20203;-68
2020/12/31 01:22:19;;;;;;;3.10;2.80;;;;;;;1.49;91.65;95882.50;5147335;27;20171;-68
2020/12/31 01:24:44;;;;;;;3.20;3.00;;;;;;;1.45;91.66;95884.66;5134659;27;20175;-68
2020/12/31 01:27:10;;;;;;;3.47;3.17;;;;;;;1.55;91.35;95884.31;5151208;27;20608;-67
2020/12/31 01:29:35;;;;;;;3.50;3.20;;;;;;;1.43;92.00;95878.91;5138714;27;20171;-67
2020/12/31 01:32:01;;;;;;;3.83;3.40;;;;;;;1.42;92.48;95876.50;5144802;27;20210;-68
2020/12/31 01:34:26;;;;;;;4.50;3.73;;;;;;;1.43;92.40;95875.50;5153373;27;20171;-68
2020/12/31 01:36:53;;;;;;;3.70;3.40;;;;;;;1.34;93.42;95866.34;5137875;27;20283;-68
2020/12/31 01:39:22;;;;;;;3.40;3.10;;;;;;;1.33;92.76;95862.97;5151032;27;20180;-68
2020/12/31 01:41:48;;;;;;;3.43;3.07;;;;;;;1.20;93.26;95868.84;5146274;27;20206;-68
2020/12/31 01:44:14;;;;;;;3.50;3.20;;;;;;;1.27;92.61;95860.34;5141171;27;20207;-68
2020/12/31 01:46:44;;;;;;;3.80;3.33;;;;;;;1.21;92.57;95856.75;5141154;27;20227;-67
2020/12/31 01:49:13;;;;;;;3.53;3.10;;;;;;;1.09;92.42;95866.81;5147805;27;20641;-68
2020/12/31 01:51:41;;;;;;;3.20;2.97;;;;;;;1.11;93.17;95864.84;5150763;27;20290;-67
2020/12/31 01:54:07;;;;;;;3.30;2.83;;;;;;;1.20;91.66;95862.91;5144849;27;20206;-68
2020/12/31 01:56:35;;;;;;;3.27;2.97;;;;;;;1.18;91.65;95857.13;5153103;27;20526;-66
2020/12/31 01:59:01;;;;;;;3.83;2.93;;;;;;;1.17;91.17;95858.91;5142404;27;20712;-68
2020/12/31 02:01:28;;;;;;;3.20;2.90;;;;;;;1.11;91.45;95864.03;5129365;27;20219;-68
2020/12/31 02:03:56;;;;;;;2.77;2.50;;;;;;;1.09;90.97;95861.66;5094140;28;20204;-68
2020/12/31 02:06:23;;;;;;;3.27;2.97;;;;;;;1.16;90.63;95861.69;5094822;28;20180;-69
2020/12/31 02:08:49;;;;;;;2.90;2.70;;;;;;;1.08;90.70;95854.88;5094088;28;20611;-67
2020/12/31 02:11:16;;;;;;;3.30;2.57;;;;;;;1.01;90.68;95853.25;5094860;28;20176;-68
2020/12/31 02:13:42;;;;;;;3.43;2.67;;;;;;;0.98;90.87;95854.44;5093584;28;20234;-69
2020/12/31 02:16:28;;;;;;;4.23;2.93;;;;;;;1.05;90.30;95844.97;5094642;28;20184;-68
2020/12/31 02:18:57;;;;;;;3.80;3.03;;;;;;;1.07;90.92;95850.72;5093418;28;20716;-68
2020/12/31 02:21:28;;;;;;;3.13;2.83;;;;;;;1.19;89.87;95845.81;5094238;28;20622;-68
2020/12/31 02:23:54;;;;;;;3.70;3.27;;;;;;;1.11;89.97;95844.22;5093610;28;20227;-68
2020/12/31 02:26:25;;;;;;;3.50;3.17;;;;;;;1.00;90.94;95842.16;5094647;28;20176;-68
2020/12/31 02:28:52;;;;;;;3.50;3.20;;;;;;;1.04;90.24;95838.22;5094230;28;20392;-68
2020/12/31 02:31:18;;;;;;;4.17;3.30;;;;;;;0.91;90.88;95837.31;5093393;28;20173;-68
2020/12/31 02:33:51;;;;;;;4.50;3.30;;;;;;;0.87;91.11;95839.50;5093270;28;20720;-67
2020/12/31 02:36:19;;;;;;;3.83;3.10;;;;;;;1.03;89.91;95833.22;5094129;28;20536;-68
2020/12/31 02:38:45;;;;;;;3.83;3.33;;;;;;;0.96;89.83;95835.78;5091691;28;20200;-68
2020/12/31 02:41:11;;;;;;;4.33;3.27;;;;;;;0.95;90.46;95834.16;5094429;28;20209;-69
2020/12/31 02:43:37;;;;;;;4.00;3.60;;;;;;;0.95;90.60;95833.41;5092920;28;20200;-67
2020/12/31 02:46:04;;;;;;;4.10;3.37;;;;;;;1.00;90.31;95833.63;5093802;28;20180;-67
2020/12/31 02:48:30;;;;;;;4.20;3.73;;;;;;;0.94;90.74;95834.38;5093991;28;20223;-67
2020/12/31 02:50:56;;;;;;;3.50;3.20;;;;;;;0.96;90.63;95832.38;5092992;28;20211;-68
2020/12/31 02:53:21;;;;;;;3.27;2.97;;;;;;;0.98;90.18;95833.81;5094396;28;20279;-69
2020/12/31 02:55:47;;;;;;;3.50;3.10;;;;;;;1.05;90.47;95836.44;5093079;28;20704;-68
2020/12/31 02:58:12;;;;;;;4.47;3.43;;;;;;;1.01;89.82;95832.59;5093742;28;20678;-68
2020/12/31 03:00:38;;;;;;;3.80;3.40;;;;;;;1.07;90.07;95832.66;5092023;28;20188;-69
2020/12/31 03:03:04;;;;;;;4.83;3.23;;;;;;;1.07;90.26;95832.66;5113860;28;20211;-68
2020/12/31 03:05:29;;;;;;;6.13;3.27;;;;;;;1.11;89.82;95831.31;5114324;28;20638;-68
2020/12/31 03:07:55;;;;;;;3.67;3.17;;;;;;;1.12;89.83;95832.06;5113671;28;20168;-67
2020/12/31 03:10:21;;;;;;;4.10;3.33;;;;;;;1.16;89.41;95828.94;5114111;28;20177;-68
2020/12/31 03:12:47;;;;;;;3.80;3.50;;;;;;;1.04;90.34;95827.09;5113563;28;20264;-69
2020/12/31 03:15:15;;;;;;;3.60;3.30;;;;;;;0.98;89.55;95817.53;5114360;28;20496;-67
2020/12/31 03:17:42;;;;;;;4.87;3.40;;;;;;;0.98;89.78;95823.50;5112349;28;20276;-67
2020/12/31 03:20:07;;;;;;;5.07;3.80;;;;;;;0.84;90.15;95822.59;5113648;27;20738;-67
2020/12/31 03:22:34;;;;;;;3.43;3.13;;;;;;;0.86;89.52;95814.69;5113127;28;20204;-65
2020/12/31 03:25:00;;;;;;;4.53;3.10;;;;;;;0.79;89.82;95819.78;5113503;28;20199;-67
2020/12/31 03:27:26;;;;;;;3.93;3.53;;;;;;;0.70;90.20;95815.78;5112482;28;20670;-67
2020/12/31 03:29:52;;;;;;;3.17;2.90;;;;;;;0.71;90.22;95814.81;5112796;28;20290;-67
2020/12/31 03:32:18;;;;;;;4.03;3.37;;;;;;;0.60;90.35;95812.75;5113226;28;20655;-67
2020/12/31 03:34:44;;;;;;;3.23;2.93;;;;;;;0.60;89.96;95820.47;5112751;28;20182;-68
2020/12/31 03:37:10;;;;;;;3.23;2.97;;;;;;;0.59;90.24;95810.34;5112862;28;20216;-66
2020/12/31 03:39:36;;;;;;;3.80;3.20;;;;;;;0.47;91.27;95806.69;5112408;28;20179;-66
2020/12/31 03:42:02;;;;;;;3.50;3.20;;;;;;;0.49;90.73;95804.75;5112868;28;20184;-67
2020/12/31 03:44:28;;;;;;;3.80;3.17;;;;;;;0.41;91.09;95805.66;5113504;28;20263;-68
2020/12/31 03:46:54;;;;;;;3.10;2.90;;;;;;;0.42;91.65;95799.53;5112099;28;20275;-69
2020/12/31 03:49:19;;;;;;;3.87;3.07;;;;;;;0.34;91.26;95797.06;5112040;28;20202;-67
2020/12/31 03:51:45;;;;;;;3.33;3.03;;;;;;;0.31;91.36;95797.47;5110534;28;20184;-66
2020/12/31 03:54:10;;;;;;;3.43;3.00;;;;;;;0.34;90.94;95797.06;5113675;28;20207;-67
2020/12/31 03:56:36;;;;;;;4.37;3.10;;;;;;;0.25;91.01;95787.91;5112208;28;20214;-67
2020/12/31 03:59:03;;;;;;;3.30;3.00;;;;;;;0.23;91.16;95788.09;5113143;28;20638;-67
2020/12/31 04:01:30;;;;;;;4.33;3.20;;;;;;;0.21;91.26;95784.13;5102594;28;20259;-69
2020/12/31 04:03:56;;;;;;;3.60;3.10;;;;;;;0.19;91.38;95779.16;5091100;28;20291;-67
2020/12/31 04:06:22;;;;;;;3.43;3.13;;;;;;;0.17;91.30;95778.53;5092590;28;20611;-67
2020/12/31 04:08:47;;;;;;;3.00;2.70;;;;;;;0.18;91.42;95771.59;5091994;28;20173;-67
2020/12/31 04:11:13;;;;;;;4.17;2.90;;;;;;;0.13;91.08;95772.16;5092541;28;20632;-67
2020/12/31 04:13:38;;;;;;;5.10;3.37;;;;;;;0.11;91.40;95768.19;5091565;28;20197;-68
2020/12/31 04:16:04;;;;;;;5.97;3.37;;;;;;;0.08;91.72;95769.34;5090954;28;20184;-67
2020/12/31 04:18:29;;;;;;;4.37;3.53;;;;;;;0.03;91.43;95761.38;5092601;28;20197;-67
2020/12/31 04:20:56;;;;;;;3.50;3.20;;;;;;;0.00;91.52;95759.19;5091401;28;20650;-67
2020/12/31 04:23:21;;;;;;;3.20;2.90;;;;;;;0.02;91.59;95756.41;5092216;28;20244;-68
2020/12/31 04:25:49;;;;;;;3.10;2.80;;;;;;;-0.05;91.54;95757.16;5091407;28;20241;-68
2020/12/31 04:28:14;;;;;;;3.47;2.83;;;;;;;-0.08;91.90;95752.38;5092431;28;20201;-67
2020/12/31 04:30:39;;;;;;;3.67;3.03;;;;;;;-0.07;91.52;95748.84;5091615;28;20269;-68
2020/12/31 04:33:05;;;;;;;4.53;3.00;;;;;;;-0.07;91.69;95746.25;5092037;28;20204;-67
2020/12/31 04:35:35;;;;;;;3.33;3.03;;;;;;;-0.10;91.76;95749.19;5091728;28;20184;-67
2020/12/31 04:38:00;;;;;;;3.50;3.20;;;;;;;-0.13;91.15;95743.63;5091145;28;20239;-67
2020/12/31 04:40:25;;;;;;;3.80;3.03;;;;;;;-0.09;90.53;95745.63;5092301;28;20230;-68
2020/12/31 04:42:51;;;;;;;2.83;2.63;;;;;;;-0.16;91.25;95739.63;5091060;28;20834;-69
2020/12/31 04:45:19;;;;;;;4.13;3.60;;;;;;;-0.26;91.00;95746.88;5092113;28;20180;-67
2020/12/31 04:47:59;;;;;;;3.20;2.90;;;;;;;0.03;89.17;95747.72;5091335;28;20172;-67
2020/12/31 04:50:32;;;;;;;3.77;3.40;;;;;;;-0.06;88.62;95742.69;5090837;28;20678;-68
2020/12/31 04:53:04;;;;;;;2.90;2.70;;;;;;;-0.06;88.32;95740.09;5090065;28;20559;-68
2020/12/31 04:55:32;;;;;;;4.87;3.07;;;;;;;-0.05;87.57;95746.84;5091691;28;20658;-67
2020/12/31 04:57:58;;;;;;;4.17;2.90;;;;;;;-0.07;86.90;95737.75;5091293;28;20212;-68
2020/12/31 05:00:24;;;;;;;3.07;2.80;;;;;;;-0.20;86.54;95738.41;5096489;28;20186;-68
2020/12/31 05:02:53;;;;;;;3.43;2.90;;;;;;;-0.22;86.72;95740.38;5133575;27;20262;-67
2020/12/31 05:05:20;;;;;;;3.07;2.77;;;;;;;-0.38;87.58;95734.69;5139758;27;20186;-67
2020/12/31 05:07:51;;;;;;;3.00;2.70;;;;;;;-0.36;87.49;95736.09;5138485;27;20182;-67
2020/12/31 05:10:16;;;;;;;3.20;2.80;;;;;;;-0.36;87.12;95740.44;5139209;27;20258;-67
2020/12/31 05:12:42;;;;;;;3.00;2.70;;;;;;;-0.47;87.31;95737.38;5138542;27;20290;-68
2020/12/31 05:15:08;;;;;;;3.43;2.63;;;;;;;-0.39;86.65;95726.16;5139706;27;20210;-67
2020/12/31 05:17:35;;;;;;;2.93;2.60;;;;;;;-0.40;87.06;95723.78;5138536;27;20251;-66
2020/12/31 05:20:14;;;;;;;3.00;2.70;;;;;;;-0.48;87.27;95729.84;5139302;27;20179;-68
2020/12/31 05:22:39;;;;;;;3.77;2.70;;;;;;;-0.44;87.10;95715.63;5138580;27;20206;-69
2020/12/31 05:25:05;;;;;;;3.10;2.80;;;;;;;-0.48;87.13;95727.28;5140097;27;20225;-68
2020/12/31 05:27:34;;;;;;;3.23;2.93;;;;;;;-0.59;87.60;95723.41;5139471;27;20522;-66
2020/12/31 05:30:05;;;;;;;3.20;2.90;;;;;;;-0.47;86.32;95727.09;5139052;27;20213;-68
2020/12/31 05:32:49;;;;;;;3.33;3.03;;;;;;;-0.52;86.68;95724.28;5138853;27;20195;-66
2020/12/31 05:35:16;;;;;;;3.93;3.03;;;;;;;-0.52;86.70;95728.63;5139215;27;20171;-68
2020/12/31 05:37:42;;;;;;;4.10;3.00;;;;;;;-0.54;86.95;95725.44;5137380;27;20226;-67
2020/12/31 05:40:10;;;;;;;3.37;3.07;;;;;;;-0.45;86.57;95719.19;5139242;27;20174;-67
2020/12/31 05:42:37;;;;;;;3.60;3.30;;;;;;;-0.44;86.16;95720.78;5138350;27;20303;-66
2020/12/31 05:45:18;;;;;;;4.30;3.20;;;;;;;-0.53;86.40;95722.69;5139279;27;20171;-67
2020/12/31 05:47:47;;;;;;;3.67;2.97;;;;;;;-0.68;87.28;95721.16;5138055;27;20684;-67
2020/12/31 05:50:27;;;;;;;5.03;3.13;;;;;;;-0.72;87.19;95712.19;5138642;27;20178;-67
2020/12/31 05:52:54;;;;;;;4.03;3.40;;;;;;;-0.63;86.78;95717.06;5136658;27;20198;-68
2020/12/31 05:55:21;;;;;;;3.50;3.20;;;;;;;-0.66;87.12;95712.25;5138760;27;20194;-67
2020/12/31 05:57:54;;;;;;;3.90;3.50;;;;;;;-0.64;86.69;95702.59;5136664;27;20584;-68
2020/12/31 06:00:23;;;;;;;3.70;3.40;;;;;;;-0.57;86.53;95710.38;5138234;27;20187;-67
2020/12/31 06:02:58;;;;;;;4.03;3.60;;;;;;;-0.69;86.96;95699.78;5131067;27;20235;-68
2020/12/31 06:05:24;;;;;;;3.63;3.30;;;;;;;-0.67;86.91;95694.44;5134313;27;20183;-67
2020/12/31 06:07:53;;;;;;;4.50;3.87;;;;;;;-0.71;87.21;95695.78;5125668;27;20168;-69
2020/12/31 06:10:31;;;;;;;3.70;3.17;;;;;;;-0.60;86.57;95692.72;5127299;27;20176;-67
2020/12/31 06:13:02;;;;;;;3.37;3.07;;;;;;;-0.55;86.15;95690.38;5119696;27;20200;-68
2020/12/31 06:15:37;;;;;;;4.20;3.63;;;;;;;-0.52;86.72;95695.19;5118220;27;20168;-68
2020/12/31 06:18:04;;;;;;;5.33;3.53;;;;;;;-0.42;85.77;95693.88;5100523;28;20658;-69
2020/12/31 06:20:36;;;;;;;3.90;3.50;;;;;;;-0.49;85.03;95694.78;5126272;27;20187;-67
2020/12/31 06:23:06;;;;;;;3.97;3.57;;;;;;;-0.65;86.40;95695.03;5124143;27;20258;-67
2020/12/31 06:25:49;;;;;;;5.10;4.00;;;;;;;-0.58;86.24;95696.72;5128286;27;20667;-67
2020/12/31 06:28:17;;;;;;;4.30;3.50;;;;;;;-0.59;85.92;95687.41;5103126;28;20638;-68
2020/12/31 06:30:48;;;;;;;5.03;4.07;;;;;;;-0.47;85.52;95692.84;5120665;27;20172;-67
2020/12/31 06:33:19;;;;;;;5.13;3.97;;;;;;;-0.49;85.41;95685.31;5124187;27;20207;-68
2020/12/31 06:35:49;;;;;;;5.07;3.77;;;;;;;-0.47;85.73;95693.66;5120245;27;20176;-67
2020/12/31 06:38:26;;;;;;;4.93;3.93;;;;;;;-0.49;85.79;95690.44;5121090;27;20195;-68
2020/12/31 06:40:51;;;;;;;4.37;3.83;;;;;;;-0.57;86.28;95688.03;5121697;27;20698;-67
2020/12/31 06:43:17;;;;;;;5.53;4.27;;;;;;;-0.53;85.76;95691.81;5124531;27;20207;-67
2020/12/31 06:45:49;;;;;;;3.80;3.50;;;;;;;-0.52;85.83;95677.97;5094253;28;20321;-67
2020/12/31 06:48:26;;;;;;;4.00;3.37;;;;;;;-0.49;85.66;95679.34;5114030;27;20176;-68
2020/12/31 06:51:01;;;;;;;4.70;3.83;;;;;;;-0.51;85.74;95687.28;5115241;27;20160;-68
2020/12/31 06:53:36;;;;;;;4.10;3.50;;;;;;;-0.61;86.24;95681.63;5113293;27;20209;-67
2020/12/31 06:56:07;;;;;;;4.37;3.80;;;;;;;-0.54;85.86;95679.13;5111810;27;20171;-67
2020/12/31 06:58:34;;;;;;;5.23;4.17;;;;;;;-0.57;85.89;95674.34;5096484;27;20291;-66
2020/12/31 07:01:01;;;;;;;4.50;3.83;;;;;;;-0.56;86.49;95674.16;5093715;27;20232;-67
2020/12/31 07:03:41;;;;;;;4.63;4.00;;;;;;;-0.69;87.04;95670.69;5126846;27;20228;-68
2020/12/31 07:06:39;;;;;;;4.70;4.00;;;;;;;-0.71;87.55;95660.56;5109754;27;20186;-68
2020/12/31 07:09:31;;;;;;;5.33;4.40;;;;;;;-0.70;87.55;95658.78;5111892;27;20194;-68
2020/12/31 07:12:07;;;;;;;6.50;4.30;;;;;;;-0.53;90.87;95671.22;5094660;28;20176;-68
2020/12/31 07:14:35;;;;;;;7.03;5.70;;;;;;;1.06;95.51;95671.09;5129944;27;20897;-68
2020/12/31 07:17:02;;;;;;;6.13;4.80;;;;;;;1.05;84.69;95674.69;5120701;27;20206;-67
2020/12/31 07:19:46;;;;;;;6.43;4.67;;;;;;;0.90;81.28;95680.97;5125565;27;20168;-69
2020/12/31 07:22:17;;;;;;;8.57;5.43;;;;;;;0.52;81.73;95676.25;5116440;27;20167;-70
2020/12/31 07:24:52;;;;;;;5.07;4.20;;;;;;;0.45;82.47;95672.09;5101115;27;20167;-69
2020/12/31 07:27:22;;;;;;;5.33;4.50;;;;;;;0.28;82.54;95672.38;5125421;27;20167;-69
2020/12/31 07:29:58;;;;;;;5.60;4.70;;;;;;;0.28;82.86;95661.28;5120399;27;20187;-68
2020/12/31 07:32:51;;;;;;;5.23;4.50;;;;;;;0.24;82.69;95663.44;5129869;27;20199;-66
2020/12/31 07:35:38;;;;;;;5.10;4.60;;;;;;;0.20;83.27;95662.22;5121642;27;20694;-64
2020/12/31 07:38:06;;;;;;;6.43;5.00;;;;;;;0.24;83.20;95657.50;5128980;27;20187;-65
2020/12/31 07:40:36;;;;;;;6.83;5.10;;;;;;;0.19;83.43;95654.69;5113952;27;20171;-63
2020/12/31 07:43:02;;;;;;;5.20;4.70;;;;;;;0.24;83.62;95653.13;5094815;28;20212;-65
2020/12/31 07:45:28;;;;;;;5.67;4.33;;;;;;;0.36;82.76;95650.81;5129072;27;20163;-65
2020/12/31 07:47:55;;;;;;;5.37;4.70;;;;;;;0.41;82.94;95659.56;5100030;28;20195;-66
2020/12/31 07:50:21;;;;;;;5.47;4.63;;;;;;;0.44;82.68;95655.81;5129205;27;20179;-67
2020/12/31 07:52:47;;;;;;;5.67;4.13;;;;;;;0.49;82.63;95657.81;5112988;27;20245;-66
2020/12/31 07:55:13;;;;;;;5.37;4.87;;;;;;;0.49;82.95;95648.31;5117781;27;20175;-65
2020/12/31 07:57:39;;;;;;;6.23;4.90;;;;;;;0.49;82.75;95653.47;5124251;27;20735;-65
2020/12/31 08:00:06;;;;;;;5.37;4.40;;;;;;;0.58;82.78;95659.25;5128400;27;20172;-65
2020/12/31 08:02:48;;;;;;;5.80;4.90;;;;;;;0.63;82.49;95652.53;5093815;28;20317;-64
2020/12/31 08:05:15;;;;;;;5.73;4.73;;;;;;;0.65;82.47;95655.72;5084804;28;20176;-65
2020/12/31 08:07:41;;;;;;;5.53;4.60;;;;;;;0.68;82.28;95657.09;5090223;28;20192;-65
2020/12/31 08:10:08;;;;;;;5.63;4.83;;;;;;;0.59;82.75;95655.69;5092233;28;20635;-66
2020/12/31 08:12:38;;;;;;;6.63;5.30;;;;;;;0.67;82.56;95653.72;5090981;28;20220;-65
2020/12/31 08:15:04;;;;;;;5.67;4.97;;;;;;;0.78;82.37;95655.75;5090979;28;20181;-68
2020/12/31 08:17:30;;;;;;;5.80;4.97;;;;;;;0.76;82.56;95655.16;5091534;28;20190;-65
2020/12/31 08:19:55;;;;;;;6.10;5.23;;;;;;;0.84;81.96;95651.59;5091033;28;20249;-65
2020/12/31 08:22:41;;;;;;;6.10;5.13;;;;;;;0.89;81.86;95640.72;5091914;28;20347;-64
2020/12/31 08:25:14;;;;;;;6.07;5.30;;;;;;;0.94;82.20;95641.72;5091763;28;20658;-64
2020/12/31 08:27:41;;;;;;;6.60;5.23;;;;;;;0.89;82.56;95645.88;5091076;28;20334;-65
2020/12/31 08:30:09;;;;;;;6.03;5.07;;;;;;;0.95;81.70;95635.56;5091566;28;20244;-65
2020/12/31 08:32:53;;;;;;;6.83;5.37;;;;;;;0.89;81.92;95645.88;5090919;28;20279;-65
2020/12/31 08:35:28;;;;;;;6.00;5.40;;;;;;;0.98;81.78;95635.19;5091413;28;20176;-64
2020/12/31 08:38:03;;;;;;;6.60;4.83;;;;;;;0.93;82.15;95636.75;5090393;28;20202;-63
2020/12/31 08:40:33;;;;;;;6.57;5.43;;;;;;;0.98;82.29;95635.19;5091453;28;20176;-64
2020/12/31 08:42:59;;;;;;;6.03;5.43;;;;;;;1.06;82.46;95636.78;5089697;28;20233;-67
2020/12/31 08:45:30;;;;;;;5.80;5.20;;;;;;;1.06;82.26;95639.38;5091072;28;20707;-64
2020/12/31 08:48:13;;;;;;;8.33;6.00;;;;;;;1.18;81.84;95637.78;5089971;28;20180;-63
2020/12/31 08:50:39;;;;;;;6.23;5.00;;;;;;;1.24;81.62;95642.97;5090549;28;20179;-62
2020/12/31 08:53:05;;;;;;;6.23;5.60;;;;;;;1.18;82.41;95638.56;5090850;28;20349;-62
2020/12/31 08:55:34;;;;;;;6.27;5.20;;;;;;;1.28;81.78;95647.75;5091066;28;20673;-61
2020/12/31 08:58:16;;;;;;;7.07;5.93;;;;;;;1.32;81.60;95638.59;5091059;28;20252;-62
2020/12/31 09:00:43;;;;;;;6.90;5.90;;;;;;;1.38;81.05;95642.97;5089114;28;20688;-63
2020/12/31 09:03:09;;;;;;;8.20;5.70;;;;;;;1.34;80.74;95649.53;5094604;28;20681;-62
2020/12/31 09:05:36;;;;;;;6.50;5.67;;;;;;;1.41;80.82;95648.53;5125459;28;20167;-61
2020/12/31 09:08:06;;;;;;;8.73;5.63;;;;;;;1.36;80.96;95644.97;5126022;28;20175;-62
2020/12/31 09:10:38;;;;;;;7.13;5.63;;;;;;;1.47;80.41;95652.91;5115166;28;20540;-61
2020/12/31 09:13:04;;;;;;;7.60;5.90;;;;;;;1.36;80.70;95656.06;5092758;28;20284;-62
2020/12/31 09:15:30;;;;;;;8.70;6.20;;;;;;;1.60;79.83;95652.94;5112282;28;20524;-62
2020/12/31 09:17:56;;;;;;;8.10;6.00;;;;;;;1.64;79.92;95655.91;5125005;28;20195;-63
2020/12/31 09:20:29;;;;;;;9.27;5.80;;;;;;;1.72;79.74;95653.13;5124642;28;20179;-62
2020/12/31 09:23:09;;;;;;;7.37;5.50;;;;;;;1.67;79.93;95645.19;5118939;28;20211;-68
2020/12/31 09:25:46;;;;;;;7.93;5.27;;;;;;;1.77;79.89;95648.16;5116805;28;20179;-67
2020/12/31 09:28:12;;;;;;;6.90;5.77;;;;;;;1.72;79.57;95653.13;5122461;28;20228;-67
2020/12/31 09:30:37;;;;;;;6.77;5.63;;;;;;;1.93;79.57;95649.53;5126889;28;20167;-63
2020/12/31 09:33:03;;;;;;;6.63;5.63;;;;;;;1.94;79.40;95648.53;5122682;28;20199;-63
2020/12/31 09:35:28;;;;;;;7.50;5.50;;;;;;;2.09;79.22;95643.94;5122474;28;20229;-64
2020/12/31 09:37:57;;;;;;;9.10;6.20;;;;;;;2.19;78.53;95644.31;5092003;28;20268;-64
2020/12/31 09:40:23;;;;;;;9.00;6.37;;;;;;;2.16;79.21;95636.97;5127273;28;20191;-64
2020/12/31 09:42:49;;;;;;;9.17;6.67;;;;;;;2.09;78.92;95649.09;5101457;28;20287;-64
2020/12/31 09:45:16;;;;;;;11.50;7.70;;;;;;;2.21;79.81;95641.53;5105316;28;20267;-64
2020/12/31 09:47:41;;;;;;;10.93;8.00;;;;;;;2.34;78.84;95636.34;5118223;27;20630;-64
2020/12/31 09:50:11;;;;;;;7.80;6.73;;;;;;;2.27;79.70;95638.13;5129817;27;20190;-64
2020/12/31 09:52:38;;;;;;;9.40;7.50;;;;;;;2.62;78.63;95631.63;5117401;27;20200;-64
2020/12/31 09:55:05;;;;;;;10.07;7.33;;;;;;;2.73;77.27;95636.16;5132394;27;20176;-64
2020/12/31 09:57:31;;;;;;;8.87;6.63;;;;;;;2.69;77.75;95637.59;5133837;27;20200;-64
2020/12/31 09:59:56;;;;;;;7.20;6.00;;;;;;;2.70;77.55;95634.00;5120283;27;20229;-63
2020/12/31 10:02:22;;;;;;;7.20;5.83;;;;;;;2.52;77.30;95628.69;5114950;27;20351;-63
2020/12/31 10:04:47;;;;;;;6.53;5.87;;;;;;;2.69;77.65;95626.44;5122851;27;20171;-64
2020/12/31 10:07:13;;;;;;;6.73;5.90;;;;;;;2.80;77.35;95624.00;5122164;27;20247;-64
2020/12/31 10:09:39;;;;;;;6.73;6.00;;;;;;;2.85;77.60;95624.19;5124083;27;20191;-64
2020/12/31 10:12:04;;;;;;;6.90;6.20;;;;;;;2.90;76.99;95614.00;5101941;28;20530;-64
2020/12/31 10:14:30;;;;;;;7.03;6.33;;;;;;;2.93;77.44;95616.19;5119074;27;20195;-63
2020/12/31 10:16:55;;;;;;;6.93;6.10;;;;;;;3.06;76.58;95611.94;5128738;27;20171;-64
2020/12/31 10:19:21;;;;;;;9.37;6.57;;;;;;;3.17;76.93;95614.66;5129351;27;20584;-63
2020/12/31 10:21:47;;;;;;;7.63;6.60;;;;;;;3.15;76.16;95608.88;5128928;27;20669;-65
2020/12/31 10:24:13;;;;;;;8.97;6.03;;;;;;;3.08;76.00;95615.88;5126224;27;20199;-66
2020/12/31 10:26:39;;;;;;;7.50;6.33;;;;;;;3.20;76.06;95610.84;5114428;27;20199;-64
2020/12/31 10:29:05;;;;;;;7.00;6.10;;;;;;;3.24;76.81;95604.22;5124626;27;20195;-63
2020/12/31 10:31:38;;;;;;;6.83;5.97;;;;;;;3.44;75.42;95612.69;5132617;27;20270;-63
2020/12/31 10:34:04;;;;;;;8.47;6.43;;;;;;;3.43;75.25;95607.69;5131209;27;20203;-64
2020/12/31 10:36:31;;;;;;;6.67;5.93;;;;;;;3.50;74.73;95603.28;5120002;27;20170;-63
2020/12/31 10:38:56;;;;;;;8.83;6.60;;;;;;;3.43;75.22;95594.75;5125035;27;20191;-63
2020/12/31 10:41:22;;;;;;;6.97;6.10;;;;;;;3.42;75.33;95600.94;5116219;27;20179;-63
2020/12/31 10:43:47;;;;;;;7.80;5.70;;;;;;;3.44;75.63;95588.56;5117526;27;20199;-63
2020/12/31 10:46:13;;;;;;;8.03;6.10;;;;;;;3.35;75.34;95593.19;5097088;27;20525;-63
2020/12/31 10:48:41;;;;;;;7.27;5.90;;;;;;;3.31;76.24;95592.03;5120274;27;20271;-63
2020/12/31 10:51:07;;;;;;;7.13;6.00;;;;;;;3.19;75.93;95588.53;5126048;27;20274;-64
2020/12/31 10:53:32;;;;;;;9.67;7.23;;;;;;;3.16;75.50;95588.97;5132073;27;20626;-64
2020/12/31 10:55:58;;;;;;;7.43;6.13;;;;;;;3.12;77.06;95582.63;5116919;27;20187;-64
2020/12/31 10:58:23;;;;;;;6.33;5.50;;;;;;;2.91;78.12;95581.16;5132011;27;20195;-63
2020/12/31 11:00:49;;;;;;;8.00;5.53;;;;;;;2.78;79.49;95576.88;5117768;27;20213;-65
2020/12/31 11:03:14;;;;;;;7.17;5.47;;;;;;;2.54;81.75;95571.63;5125778;27;20202;-64
2020/12/31 11:05:40;;;;;;;6.77;5.70;;;;;;;2.59;84.09;95570.00;5116072;27;20630;-64
2020/12/31 11:08:05;;;;;;;9.67;6.27;;;;;;;2.61;83.41;95564.63;5125457;27;20182;-64
2020/12/31 11:10:37;;;;;;;6.77;5.80;;;;;;;2.72;83.62;95564.75;5125017;27;20179;-64
2020/12/31 11:13:03;;;;;;;6.60;5.33;;;;;;;2.73;84.70;95560.38;5120972;27;20371;-64
2020/12/31 11:15:29;;;;;;;5.93;5.33;;;;;;;2.75;84.91;95553.19;5131728;27;20287;-64
2020/12/31 11:17:54;;;;;;;4.93;4.43;;;;;;;2.77;84.56;95559.75;5117087;27;20207;-63
2020/12/31 11:20:20;;;;;;;5.03;4.47;;;;;;;2.66;85.43;95549.28;5125446;27;20180;-68
2020/12/31 11:22:45;;;;;;;5.50;4.80;;;;;;;2.69;86.29;95544.47;5125677;27;20661;-64
2020/12/31 11:25:10;;;;;;;6.47;5.20;;;;;;;2.64;86.41;95546.09;5123521;27;20626;-63
2020/12/31 11:27:36;;;;;;;6.03;5.43;;;;;;;2.64;86.98;95546.88;5106952;27;20286;-63
2020/12/31 11:30:02;;;;;;;5.60;5.07;;;;;;;2.70;87.08;95545.25;5127719;27;20556;-64
2020/12/31 11:32:28;;;;;;;6.13;5.23;;;;;;;2.61;88.47;95538.75;5122665;27;20203;-70
2020/12/31 11:34:54;;;;;;;7.53;5.90;;;;;;;2.85;87.85;95536.22;5100508;28;20249;-64
2020/12/31 11:37:19;;;;;;;7.13;5.90;;;;;;;2.87;88.25;95533.41;5120833;27;20210;-64
2020/12/31 11:39:45;;;;;;;11.20;6.53;;;;;;;3.01;87.19;95529.72;5122564;27;20175;-62
2020/12/31 11:42:10;;;;;;;7.17;5.90;;;;;;;3.08;86.32;95525.31;5122061;27;20356;-56
2020/12/31 11:44:37;;;;;;;8.17;6.63;;;;;;;2.98;86.86;95521.59;5121409;27;20626;-57